sensor_id;sensor_type;location;lat;lon;timestamp;pressure;altitude;pressure_sealevel;temperature;humidity
8320;BME280;4197;42.130;24.746;2023-06-24T00:00:26;99468.44;;;22.30;100.00
8320;BME280;4197;42.130;24.746;2023-06-24T00:02:54;99471.81;;;22.21;100.00
8320;BME280;4197;42.130;24.746;2023-06-24T00:05:24;99472.25;;;22.20;100.00
8320;BME280;4197;42.130;24.746;2023-06-24T00:07:52;99466.00;;;22.16;100.00
8320;BME280;4197;42.130;24.746;2023-06-24T00:10:23;99463.50;;;22.05;100.00
8320;BME280;4197;42.130;24.746;2023-06-24T00:12:51;99463.09;;;22.07;100.00
8320;BME280;4197;42.130;24.746;2023-06-24T00:15:21;99457.31;;;22.01;100.00
8320;BME280;4197;42.130;24.746;2023-06-24T00:17:49;99452.66;;;21.98;100.00
8320;BME280;4197;42.130;24.746;2023-06-24T00:20:17;99456.78;;;21.90;100.00
8320;BME280;4197;42.130;24.746;2023-06-24T00:22:46;99458.31;;;21.91;100.00
8320;BME280;4197;42.130;24.746;2023-06-24T00:25:15;99448.50;;;21.90;100.00
8320;BME280;4197;42.130;24.746;2023-06-24T00:27:44;99446.50;;;21.90;100.00
8320;BME280;4197;42.130;24.746;2023-06-24T00:30:13;99452.03;;;21.90;100.00
8320;BME280;4197;42.130;24.746;2023-06-24T00:32:42;99446.75;;;21.79;100.00
8320;BME280;4197;42.130;24.746;2023-06-24T00:35:10;99452.44;;;21.72;100.00
8320;BME280;4197;42.130;24.746;2023-06-24T00:37:38;99449.88;;;21.81;100.00
8320;BME280;4197;42.130;24.746;2023-06-24T00:40:08;99440.81;;;21.97;100.00
8320;BME280;4197;42.130;24.746;2023-06-24T00:42:38;99455.22;;;21.89;100.00
8320;BME280;4197;42.130;24.746;2023-06-24T00:45:08;99446.41;;;21.94;100.00
8320;BME280;4197;42.130;24.746;2023-06-24T00:47:36;99443.84;;;21.87;100.00
8320;BME280;4197;42.130;24.746;2023-06-24T00:50:08;99439.25;;;21.96;100.00
8320;BME280;4197;42.130;24.746;2023-06-24T00:52:38;99433.75;;;21.96;100.00
8320;BME280;4197;42.130;24.746;2023-06-24T00:55:10;99440.22;;;21.90;100.00
8320;BME280;4197;42.130;24.746;2023-06-24T00:57:40;99440.03;;;21.80;100.00
8320;BME280;4197;42.130;24.746;2023-06-24T01:00:09;99437.50;;;21.70;100.00
8320;BME280;4197;42.130;24.746;2023-06-24T01:02:41;99432.25;;;21.59;100.00
8320;BME280;4197;42.130;24.746;2023-06-24T01:05:11;99433.78;;;21.44;100.00
8320;BME280;4197;42.130;24.746;2023-06-24T01:07:40;99433.88;;;21.36;100.00
8320;BME280;4197;42.130;24.746;2023-06-24T01:10:09;99436.53;;;21.24;100.00
8320;BME280;4197;42.130;24.746;2023-06-24T01:12:40;99438.09;;;21.25;100.00
8320;BME280;4197;42.130;24.746;2023-06-24T01:15:11;99442.91;;;21.21;100.00
8320;BME280;4197;42.130;24.746;2023-06-24T01:17:46;99443.19;;;21.26;100.00
8320;BME280;4197;42.130;24.746;2023-06-24T01:20:23;99440.34;;;21.30;100.00
8320;BME280;4197;42.130;24.746;2023-06-24T01:23:27;99436.75;;;21.13;100.00
8320;BME280;4197;42.130;24.746;2023-06-24T01:26:39;99428.44;;;20.97;100.00
8320;BME280;4197;42.130;24.746;2023-06-24T01:29:34;99422.72;;;20.87;100.00
8320;BME280;4197;42.130;24.746;2023-06-24T01:32:15;99425.13;;;20.85;100.00
8320;BME280;4197;42.130;24.746;2023-06-24T01:34:53;99431.13;;;20.80;100.00
8320;BME280;4197;42.130;24.746;2023-06-24T01:37:29;99428.94;;;20.91;100.00
8320;BME280;4197;42.130;24.746;2023-06-24T01:40:05;99430.34;;;21.00;100.00
8320;BME280;4197;42.130;24.746;2023-06-24T01:42:39;99439.94;;;21.11;99.65
8320;BME280;4197;42.130;24.746;2023-06-24T01:45:12;99433.38;;;21.05;98.20
8320;BME280;4197;42.130;24.746;2023-06-24T01:47:44;99451.47;;;20.86;100.00
8320;BME280;4197;42.130;24.746;2023-06-24T01:50:16;99439.66;;;20.86;100.00
8320;BME280;4197;42.130;24.746;2023-06-24T01:52:50;99442.63;;;20.75;100.00
8320;BME280;4197;42.130;24.746;2023-06-24T01:55:21;99438.97;;;20.62;100.00
8320;BME280;4197;42.130;24.746;2023-06-24T01:57:50;99440.63;;;20.56;100.00
8320;BME280;4197;42.130;24.746;2023-06-24T02:00:21;99443.38;;;20.56;100.00
8320;BME280;4197;42.130;24.746;2023-06-24T02:02:53;99446.09;;;20.59;100.00
8320;BME280;4197;42.130;24.746;2023-06-24T02:05:21;99445.53;;;20.68;100.00
8320;BME280;4197;42.130;24.746;2023-06-24T02:07:52;99458.53;;;20.67;100.00
8320;BME280;4197;42.130;24.746;2023-06-24T02:10:21;99454.09;;;20.74;100.00
8320;BME280;4197;42.130;24.746;2023-06-24T02:12:51;99456.78;;;20.77;100.00
8320;BME280;4197;42.130;24.746;2023-06-24T02:15:21;99457.69;;;20.70;100.00
8320;BME280;4197;42.130;24.746;2023-06-24T02:17:52;99461.34;;;20.64;99.31
8320;BME280;4197;42.130;24.746;2023-06-24T02:20:23;99466.88;;;20.40;98.23
8320;BME280;4197;42.130;24.746;2023-06-24T02:22:55;99470.94;;;20.32;100.00
8320;BME280;4197;42.130;24.746;2023-06-24T02:25:26;99469.06;;;20.25;100.00
8320;BME280;4197;42.130;24.746;2023-06-24T02:27:54;99481.75;;;20.19;100.00
8320;BME280;4197;42.130;24.746;2023-06-24T02:30:23;99495.53;;;20.19;100.00
8320;BME280;4197;42.130;24.746;2023-06-24T02:32:54;99495.72;;;20.32;99.09
8320;BME280;4197;42.130;24.746;2023-06-24T02:35:23;99493.97;;;20.18;99.10
8320;BME280;4197;42.130;24.746;2023-06-24T02:37:51;99494.50;;;20.33;97.57
8320;BME280;4197;42.130;24.746;2023-06-24T02:40:19;99498.41;;;20.36;98.33
8320;BME280;4197;42.130;24.746;2023-06-24T02:42:47;99498.84;;;20.34;98.82
8320;BME280;4197;42.130;24.746;2023-06-24T02:45:16;99496.19;;;20.27;99.22
8320;BME280;4197;42.130;24.746;2023-06-24T02:47:46;99507.75;;;20.42;97.13
8320;BME280;4197;42.130;24.746;2023-06-24T02:50:16;99509.13;;;20.30;96.23
8320;BME280;4197;42.130;24.746;2023-06-24T02:52:46;99510.06;;;20.20;99.56
8320;BME280;4197;42.130;24.746;2023-06-24T02:55:14;99509.75;;;20.14;99.17
8320;BME280;4197;42.130;24.746;2023-06-24T02:57:43;99506.16;;;20.17;97.63
8320;BME280;4197;42.130;24.746;2023-06-24T03:00:12;99511.78;;;20.10;96.42
8320;BME280;4197;42.130;24.746;2023-06-24T03:02:42;99522.88;;;20.07;97.69
8320;BME280;4197;42.130;24.746;2023-06-24T03:05:11;99516.22;;;20.04;97.20
8320;BME280;4197;42.130;24.746;2023-06-24T03:07:41;99510.03;;;19.96;98.48
8320;BME280;4197;42.130;24.746;2023-06-24T03:10:10;99505.69;;;19.99;99.70
8320;BME280;4197;42.130;24.746;2023-06-24T03:12:38;99505.53;;;20.10;99.08
8320;BME280;4197;42.130;24.746;2023-06-24T03:15:07;99507.81;;;20.15;97.99
8320;BME280;4197;42.130;24.746;2023-06-24T03:17:36;99504.91;;;20.22;95.85
8320;BME280;4197;42.130;24.746;2023-06-24T03:20:06;99504.09;;;20.25;95.57
8320;BME280;4197;42.130;24.746;2023-06-24T03:22:35;99501.63;;;20.31;97.21
8320;BME280;4197;42.130;24.746;2023-06-24T03:25:07;99498.34;;;20.39;94.52
8320;BME280;4197;42.130;24.746;2023-06-24T03:27:35;99499.19;;;20.36;93.67
8320;BME280;4197;42.130;24.746;2023-06-24T03:30:05;99514.16;;;20.35;95.29
8320;BME280;4197;42.130;24.746;2023-06-24T03:32:33;99521.81;;;20.47;93.99
8320;BME280;4197;42.130;24.746;2023-06-24T03:35:03;99515.25;;;20.65;90.76
8320;BME280;4197;42.130;24.746;2023-06-24T03:37:33;99517.81;;;20.76;89.59
8320;BME280;4197;42.130;24.746;2023-06-24T03:40:01;99517.59;;;20.86;88.98
8320;BME280;4197;42.130;24.746;2023-06-24T03:42:32;99516.84;;;20.86;88.29
8320;BME280;4197;42.130;24.746;2023-06-24T03:45:01;99516.28;;;20.94;87.39
8320;BME280;4197;42.130;24.746;2023-06-24T03:47:30;99506.47;;;21.13;85.61
8320;BME280;4197;42.130;24.746;2023-06-24T03:49:58;99508.88;;;21.31;85.91
8320;BME280;4197;42.130;24.746;2023-06-24T03:52:26;99510.34;;;21.56;84.02
8320;BME280;4197;42.130;24.746;2023-06-24T03:54:54;99508.31;;;21.60;82.89
8320;BME280;4197;42.130;24.746;2023-06-24T03:57:22;99514.78;;;21.70;81.71
8320;BME280;4197;42.130;24.746;2023-06-24T03:59:52;99516.19;;;21.78;80.10
8320;BME280;4197;42.130;24.746;2023-06-24T04:02:20;99517.34;;;21.60;78.44
8320;BME280;4197;42.130;24.746;2023-06-24T04:04:48;99510.34;;;21.56;79.57
8320;BME280;4197;42.130;24.746;2023-06-24T04:07:17;99514.69;;;21.57;79.12
8320;BME280;4197;42.130;24.746;2023-06-24T04:09:54;99515.09;;;21.92;76.72
8320;BME280;4197;42.130;24.746;2023-06-24T04:12:23;99508.91;;;22.04;78.50
8320;BME280;4197;42.130;24.746;2023-06-24T04:14:52;99508.53;;;22.02;76.37
8320;BME280;4197;42.130;24.746;2023-06-24T04:17:21;99514.41;;;22.04;76.41
8320;BME280;4197;42.130;24.746;2023-06-24T04:19:49;99518.44;;;21.83;77.68
8320;BME280;4197;42.130;24.746;2023-06-24T04:22:17;99523.97;;;21.99;76.10
8320;BME280;4197;42.130;24.746;2023-06-24T04:24:45;99518.44;;;21.83;77.18
8320;BME280;4197;42.130;24.746;2023-06-24T04:27:13;99521.13;;;22.03;75.34
8320;BME280;4197;42.130;24.746;2023-06-24T04:29:41;99528.03;;;22.11;74.17
8320;BME280;4197;42.130;24.746;2023-06-24T04:32:11;99535.53;;;21.94;74.50
8320;BME280;4197;42.130;24.746;2023-06-24T04:34:39;99533.66;;;22.08;74.46
8320;BME280;4197;42.130;24.746;2023-06-24T04:37:07;99534.09;;;22.06;72.33
8320;BME280;4197;42.130;24.746;2023-06-24T04:39:36;99544.03;;;22.03;74.56
8320;BME280;4197;42.130;24.746;2023-06-24T04:42:04;99537.91;;;22.12;72.29
8320;BME280;4197;42.130;24.746;2023-06-24T04:44:32;99542.16;;;22.33;70.15
8320;BME280;4197;42.130;24.746;2023-06-24T04:47:01;99557.19;;;22.32;70.83
8320;BME280;4197;42.130;24.746;2023-06-24T04:49:31;99563.84;;;22.35;70.13
8320;BME280;4197;42.130;24.746;2023-06-24T04:52:00;99569.72;;;22.37;70.43
8320;BME280;4197;42.130;24.746;2023-06-24T04:54:28;99564.34;;;22.62;69.46
8320;BME280;4197;42.130;24.746;2023-06-24T04:56:56;99565.50;;;23.10;67.04
8320;BME280;4197;42.130;24.746;2023-06-24T04:59:24;99572.34;;;23.35;67.69
8320;BME280;4197;42.130;24.746;2023-06-24T05:01:52;99573.56;;;23.34;66.08
8320;BME280;4197;42.130;24.746;2023-06-24T05:04:21;99566.19;;;23.56;67.28
8320;BME280;4197;42.130;24.746;2023-06-24T05:06:50;99575.59;;;24.01;66.49
8320;BME280;4197;42.130;24.746;2023-06-24T05:09:18;99564.28;;;24.46;63.27
8320;BME280;4197;42.130;24.746;2023-06-24T05:11:46;99570.66;;;24.69;62.54
8320;BME280;4197;42.130;24.746;2023-06-24T05:14:15;99577.06;;;24.91;60.87
8320;BME280;4197;42.130;24.746;2023-06-24T05:16:43;99576.44;;;25.09;60.64
8320;BME280;4197;42.130;24.746;2023-06-24T05:19:11;99589.38;;;25.25;59.16
8320;BME280;4197;42.130;24.746;2023-06-24T05:21:40;99581.84;;;25.48;58.24
8320;BME280;4197;42.130;24.746;2023-06-24T05:24:09;99580.63;;;25.80;56.67
8320;BME280;4197;42.130;24.746;2023-06-24T05:26:37;99587.19;;;25.86;56.65
8320;BME280;4197;42.130;24.746;2023-06-24T05:29:05;99587.03;;;25.68;57.09
8320;BME280;4197;42.130;24.746;2023-06-24T05:31:33;99590.91;;;25.70;57.02
8320;BME280;4197;42.130;24.746;2023-06-24T05:34:01;99588.09;;;25.39;58.03
8320;BME280;4197;42.130;24.746;2023-06-24T05:36:29;99585.38;;;25.70;56.81
8320;BME280;4197;42.130;24.746;2023-06-24T05:38:58;99586.59;;;25.91;56.47
8320;BME280;4197;42.130;24.746;2023-06-24T05:41:27;99594.94;;;26.41;55.06
8320;BME280;4197;42.130;24.746;2023-06-24T05:44:01;99591.97;;;26.85;55.19
8320;BME280;4197;42.130;24.746;2023-06-24T05:46:30;99590.94;;;27.28;55.11
8320;BME280;4197;42.130;24.746;2023-06-24T05:48:58;99584.31;;;27.17;55.30
8320;BME280;4197;42.130;24.746;2023-06-24T05:51:26;99584.13;;;27.02;55.78
8320;BME280;4197;42.130;24.746;2023-06-24T05:53:55;99579.47;;;26.89;56.21
8320;BME280;4197;42.130;24.746;2023-06-24T05:56:23;99582.75;;;26.97;56.27
8320;BME280;4197;42.130;24.746;2023-06-24T05:58:53;99582.63;;;27.19;54.77
8320;BME280;4197;42.130;24.746;2023-06-24T06:01:21;99587.84;;;27.26;53.85
8320;BME280;4197;42.130;24.746;2023-06-24T06:03:49;99589.50;;;27.70;52.66
8320;BME280;4197;42.130;24.746;2023-06-24T06:06:17;99586.84;;;27.94;53.35
8320;BME280;4197;42.130;24.746;2023-06-24T06:08:47;99579.25;;;27.94;54.84
8320;BME280;4197;42.130;24.746;2023-06-24T06:11:15;99585.91;;;27.88;56.17
8320;BME280;4197;42.130;24.746;2023-06-24T06:13:43;99577.72;;;27.84;57.13
8320;BME280;4197;42.130;24.746;2023-06-24T06:16:12;99581.09;;;27.97;58.79
8320;BME280;4197;42.130;24.746;2023-06-24T06:18:40;99585.94;;;27.60;61.81
8320;BME280;4197;42.130;24.746;2023-06-24T06:21:09;99568.47;;;27.59;61.00
8320;BME280;4197;42.130;24.746;2023-06-24T06:23:37;99560.84;;;27.78;60.38
8320;BME280;4197;42.130;24.746;2023-06-24T06:26:05;99560.53;;;27.76;58.50
8320;BME280;4197;42.130;24.746;2023-06-24T06:28:33;99553.03;;;27.49;60.15
8320;BME280;4197;42.130;24.746;2023-06-24T06:31:01;99553.34;;;27.14;62.28
8320;BME280;4197;42.130;24.746;2023-06-24T06:33:31;99554.16;;;27.24;62.63
8320;BME280;4197;42.130;24.746;2023-06-24T06:36:00;99542.53;;;27.26;62.76
8320;BME280;4197;42.130;24.746;2023-06-24T06:38:28;99551.81;;;27.32;62.77
8320;BME280;4197;42.130;24.746;2023-06-24T06:40:56;99546.25;;;27.23;63.22
8320;BME280;4197;42.130;24.746;2023-06-24T06:43:24;99548.72;;;27.11;64.40
8320;BME280;4197;42.130;24.746;2023-06-24T06:45:52;99548.72;;;27.11;65.00
8320;BME280;4197;42.130;24.746;2023-06-24T06:48:21;99546.88;;;27.18;65.60
8320;BME280;4197;42.130;24.746;2023-06-24T06:50:50;99541.28;;;26.62;66.66
8320;BME280;4197;42.130;24.746;2023-06-24T06:53:19;99549.03;;;26.95;64.90
8320;BME280;4197;42.130;24.746;2023-06-24T06:55:48;99552.13;;;27.06;63.94
8320;BME280;4197;42.130;24.746;2023-06-24T06:58:16;99544.25;;;27.23;61.58
8320;BME280;4197;42.130;24.746;2023-06-24T07:00:45;99551.81;;;27.23;60.91
8320;BME280;4197;42.130;24.746;2023-06-24T07:03:13;99545.94;;;27.30;60.65
8320;BME280;4197;42.130;24.746;2023-06-24T07:05:41;99544.06;;;27.45;58.97
8320;BME280;4197;42.130;24.746;2023-06-24T07:08:11;99537.88;;;27.32;59.61
8320;BME280;4197;42.130;24.746;2023-06-24T07:10:39;99536.53;;;27.27;59.68
8320;BME280;4197;42.130;24.746;2023-06-24T07:13:08;99541.78;;;27.25;58.51
8320;BME280;4197;42.130;24.746;2023-06-24T07:15:36;99528.47;;;27.39;57.88
8320;BME280;4197;42.130;24.746;2023-06-24T07:18:04;99529.22;;;27.39;58.21
8320;BME280;4197;42.130;24.746;2023-06-24T07:20:32;99524.09;;;27.38;56.75
8320;BME280;4197;42.130;24.746;2023-06-24T07:23:00;99529.69;;;27.28;57.84
8320;BME280;4197;42.130;24.746;2023-06-24T07:25:31;99532.00;;;26.93;58.79
8320;BME280;4197;42.130;24.746;2023-06-24T07:27:59;99527.06;;;26.79;58.78
8320;BME280;4197;42.130;24.746;2023-06-24T07:30:27;99528.47;;;26.65;59.06
8320;BME280;4197;42.130;24.746;2023-06-24T07:32:55;99534.50;;;26.73;59.28
8320;BME280;4197;42.130;24.746;2023-06-24T07:35:23;99532.63;;;26.79;59.67
8320;BME280;4197;42.130;24.746;2023-06-24T07:37:52;99536.38;;;26.94;57.85
8320;BME280;4197;42.130;24.746;2023-06-24T07:40:20;99531.72;;;26.73;57.09
8320;BME280;4197;42.130;24.746;2023-06-24T07:42:49;99529.72;;;26.91;55.90
8320;BME280;4197;42.130;24.746;2023-06-24T07:45:17;99527.06;;;26.79;56.44
8320;BME280;4197;42.130;24.746;2023-06-24T07:47:46;99536.66;;;26.96;55.74
8320;BME280;4197;42.130;24.746;2023-06-24T07:50:14;99532.94;;;26.99;55.66
8320;BME280;4197;42.130;24.746;2023-06-24T07:52:42;99533.09;;;27.23;56.43
8320;BME280;4197;42.130;24.746;2023-06-24T07:55:11;99530.94;;;27.36;56.09
8320;BME280;4197;42.130;24.746;2023-06-24T07:57:39;99536.88;;;27.63;54.22
8320;BME280;4197;42.130;24.746;2023-06-24T08:00:09;99542.78;;;27.65;52.76
8320;BME280;4197;42.130;24.746;2023-06-24T08:02:37;99538.13;;;27.62;52.73
8320;BME280;4197;42.130;24.746;2023-06-24T08:05:06;99540.59;;;27.59;53.28
8320;BME280;4197;42.130;24.746;2023-06-24T08:07:35;99539.66;;;27.81;53.37
8320;BME280;4197;42.130;24.746;2023-06-24T08:10:04;99544.41;;;27.90;53.29
8320;BME280;4197;42.130;24.746;2023-06-24T08:12:33;99538.75;;;27.56;53.43
8320;BME280;4197;42.130;24.746;2023-06-24T08:15:01;99543.06;;;27.67;53.21
8320;BME280;4197;42.130;24.746;2023-06-24T08:17:30;99533.91;;;27.85;55.10
8320;BME280;4197;42.130;24.746;2023-06-24T08:19:59;99538.63;;;28.02;54.23
8320;BME280;4197;42.130;24.746;2023-06-24T08:22:27;99544.78;;;28.16;51.17
8320;BME280;4197;42.130;24.746;2023-06-24T08:24:55;99534.97;;;27.87;50.98
8320;BME280;4197;42.130;24.746;2023-06-24T08:27:23;99539.59;;;27.90;51.60
8320;BME280;4197;42.130;24.746;2023-06-24T08:29:51;99537.00;;;27.77;52.70
8320;BME280;4197;42.130;24.746;2023-06-24T08:32:19;99528.97;;;28.13;52.67
8320;BME280;4197;42.130;24.746;2023-06-24T08:34:50;99543.44;;;28.35;51.16
8320;BME280;4197;42.130;24.746;2023-06-24T08:37:18;99543.78;;;28.28;49.99
8320;BME280;4197;42.130;24.746;2023-06-24T08:39:46;99535.50;;;28.10;50.02
8320;BME280;4197;42.130;24.746;2023-06-24T08:42:14;99538.28;;;28.10;50.44
8320;BME280;4197;42.130;24.746;2023-06-24T08:44:42;99534.50;;;28.22;50.23
8320;BME280;4197;42.130;24.746;2023-06-24T08:47:11;99528.22;;;28.36;49.52
8320;BME280;4197;42.130;24.746;2023-06-24T08:49:46;99523.94;;;28.26;49.95
8320;BME280;4197;42.130;24.746;2023-06-24T08:52:17;99521.00;;;28.30;48.98
8320;BME280;4197;42.130;24.746;2023-06-24T08:54:46;99529.16;;;28.42;49.40
8320;BME280;4197;42.130;24.746;2023-06-24T08:57:16;99523.88;;;28.68;49.85
8320;BME280;4197;42.130;24.746;2023-06-24T08:59:45;99533.53;;;28.82;49.61
8320;BME280;4197;42.130;24.746;2023-06-24T09:02:13;99535.38;;;28.61;49.45
8320;BME280;4197;42.130;24.746;2023-06-24T09:04:42;99533.13;;;28.75;50.22
8320;BME280;4197;42.130;24.746;2023-06-24T09:07:10;99529.47;;;28.83;49.61
8320;BME280;4197;42.130;24.746;2023-06-24T09:09:44;99532.28;;;28.98;47.68
8320;BME280;4197;42.130;24.746;2023-06-24T09:12:14;99529.41;;;28.92;48.53
8320;BME280;4197;42.130;24.746;2023-06-24T09:14:48;99520.63;;;28.85;48.63
8320;BME280;4197;42.130;24.746;2023-06-24T09:17:18;99514.22;;;28.94;49.66
8320;BME280;4197;42.130;24.746;2023-06-24T09:19:49;99515.81;;;28.85;50.24
8320;BME280;4197;42.130;24.746;2023-06-24T09:22:18;99516.28;;;29.08;49.23
8320;BME280;4197;42.130;24.746;2023-06-24T09:24:48;99518.78;;;29.35;50.36
8320;BME280;4197;42.130;24.746;2023-06-24T09:27:17;99504.13;;;29.55;49.65
8320;BME280;4197;42.130;24.746;2023-06-24T09:30:16;99507.78;;;29.91;47.43
8320;BME280;4197;42.130;24.746;2023-06-24T09:32:47;99498.53;;;29.85;46.90
8320;BME280;4197;42.130;24.746;2023-06-24T09:35:18;99489.91;;;29.68;46.47
8320;BME280;4197;42.130;24.746;2023-06-24T09:37:51;99498.47;;;29.50;46.57
8320;BME280;4197;42.130;24.746;2023-06-24T09:40:21;99495.19;;;29.37;47.99
8320;BME280;4197;42.130;24.746;2023-06-24T09:42:53;99487.38;;;29.26;47.37
8320;BME280;4197;42.130;24.746;2023-06-24T09:45:23;99485.44;;;29.32;49.07
8320;BME280;4197;42.130;24.746;2023-06-24T09:47:51;99471.50;;;29.17;48.30
8320;BME280;4197;42.130;24.746;2023-06-24T09:50:20;99469.28;;;29.36;48.90
8320;BME280;4197;42.130;24.746;2023-06-24T09:52:49;99463.31;;;29.28;48.43
8320;BME280;4197;42.130;24.746;2023-06-24T09:55:18;99457.13;;;29.54;48.60
8320;BME280;4197;42.130;24.746;2023-06-24T09:57:50;99444.97;;;29.72;47.62
8320;BME280;4197;42.130;24.746;2023-06-24T10:00:19;99445.28;;;29.94;47.14
8320;BME280;4197;42.130;24.746;2023-06-24T10:02:48;99448.03;;;30.09;47.07
8320;BME280;4197;42.130;24.746;2023-06-24T10:05:17;99447.91;;;30.39;46.31
8320;BME280;4197;42.130;24.746;2023-06-24T10:07:45;99443.56;;;30.58;46.38
8320;BME280;4197;42.130;24.746;2023-06-24T10:10:14;99448.34;;;30.32;45.60
8320;BME280;4197;42.130;24.746;2023-06-24T10:12:43;99441.91;;;30.26;45.90
8320;BME280;4197;42.130;24.746;2023-06-24T10:15:12;99443.78;;;30.34;45.48
8320;BME280;4197;42.130;24.746;2023-06-24T10:17:40;99437.88;;;30.27;45.79
8320;BME280;4197;42.130;24.746;2023-06-24T10:20:09;99426.28;;;29.98;47.14
8320;BME280;4197;42.130;24.746;2023-06-24T10:22:38;99425.13;;;30.26;46.83
8320;BME280;4197;42.130;24.746;2023-06-24T10:25:06;99427.34;;;30.62;46.14
8320;BME280;4197;42.130;24.746;2023-06-24T10:27:39;99426.81;;;30.38;44.27
8320;BME280;4197;42.130;24.746;2023-06-24T10:30:17;99424.84;;;30.44;44.46
8320;BME280;4197;42.130;24.746;2023-06-24T10:32:51;99421.19;;;30.58;44.46
8320;BME280;4197;42.130;24.746;2023-06-24T10:35:24;99418.44;;;30.64;44.62
8320;BME280;4197;42.130;24.746;2023-06-24T10:37:56;99422.19;;;30.35;46.00
8320;BME280;4197;42.130;24.746;2023-06-24T10:40:38;99411.25;;;30.57;46.00
8320;BME280;4197;42.130;24.746;2023-06-24T10:43:28;99403.75;;;30.69;46.08
8320;BME280;4197;42.130;24.746;2023-06-24T10:45:58;99406.09;;;30.76;45.07
8320;BME280;4197;42.130;24.746;2023-06-24T10:48:26;99408.53;;;30.89;45.08
8320;BME280;4197;42.130;24.746;2023-06-24T10:50:55;99397.91;;;30.93;44.25
8320;BME280;4197;42.130;24.746;2023-06-24T10:53:23;99400.22;;;30.74;43.99
8320;BME280;4197;42.130;24.746;2023-06-24T10:55:51;99400.19;;;30.68;44.24
8320;BME280;4197;42.130;24.746;2023-06-24T10:58:19;99382.88;;;30.70;45.13
8320;BME280;4197;42.130;24.746;2023-06-24T11:00:47;99386.84;;;30.84;45.46
8320;BME280;4197;42.130;24.746;2023-06-24T11:03:18;99373.81;;;31.07;45.61
8320;BME280;4197;42.130;24.746;2023-06-24T11:05:48;99366.31;;;31.24;46.10
8320;BME280;4197;42.130;24.746;2023-06-24T11:08:17;99358.84;;;31.47;45.63
8320;BME280;4197;42.130;24.746;2023-06-24T11:10:47;99359.31;;;31.40;44.64
8320;BME280;4197;42.130;24.746;2023-06-24T11:13:15;99354.75;;;31.43;46.75
8320;BME280;4197;42.130;24.746;2023-06-24T11:15:48;99354.81;;;31.54;46.11
8320;BME280;4197;42.130;24.746;2023-06-24T11:18:18;99351.03;;;31.63;45.19
8320;BME280;4197;42.130;24.746;2023-06-24T11:20:46;99345.50;;;31.74;45.62
8320;BME280;4197;42.130;24.746;2023-06-24T11:23:14;99334.63;;;31.93;44.53
8320;BME280;4197;42.130;24.746;2023-06-24T11:25:43;99331.34;;;32.00;44.35
8320;BME280;4197;42.130;24.746;2023-06-24T11:28:16;99325.34;;;31.75;44.89
8320;BME280;4197;42.130;24.746;2023-06-24T11:30:48;99324.53;;;31.64;45.55
8320;BME280;4197;42.130;24.746;2023-06-24T11:33:27;99316.97;;;31.81;46.18
8320;BME280;4197;42.130;24.746;2023-06-24T11:35:56;99317.22;;;31.83;45.58
8320;BME280;4197;42.130;24.746;2023-06-24T11:38:24;99309.69;;;32.12;46.04
8320;BME280;4197;42.130;24.746;2023-06-24T11:40:59;99312.53;;;32.23;46.47
8320;BME280;4197;42.130;24.746;2023-06-24T11:43:27;99311.03;;;32.33;45.69
8320;BME280;4197;42.130;24.746;2023-06-24T11:45:55;99311.56;;;32.37;40.70
8320;BME280;4197;42.130;24.746;2023-06-24T11:48:28;99304.06;;;32.06;40.72
8320;BME280;4197;42.130;24.746;2023-06-24T11:50:57;99308.06;;;31.88;41.35
8320;BME280;4197;42.130;24.746;2023-06-24T11:53:40;99299.34;;;31.69;41.88
8320;BME280;4197;42.130;24.746;2023-06-24T11:56:09;99293.19;;;31.60;42.25
8320;BME280;4197;42.130;24.746;2023-06-24T11:58:38;99290.63;;;31.62;43.97
8320;BME280;4197;42.130;24.746;2023-06-24T12:01:06;99281.06;;;31.85;43.98
8320;BME280;4197;42.130;24.746;2023-06-24T12:03:36;99283.38;;;31.92;43.90
8320;BME280;4197;42.130;24.746;2023-06-24T12:06:05;99285.66;;;31.88;42.56
8320;BME280;4197;42.130;24.746;2023-06-24T12:08:33;99294.50;;;31.70;41.70
8320;BME280;4197;42.130;24.746;2023-06-24T12:11:17;99290.41;;;31.65;41.68
8320;BME280;4197;42.130;24.746;2023-06-24T12:13:45;99271.06;;;31.78;41.71
8320;BME280;4197;42.130;24.746;2023-06-24T12:16:13;99266.75;;;31.77;42.87
8320;BME280;4197;42.130;24.746;2023-06-24T12:18:43;99267.84;;;31.97;42.01
8320;BME280;4197;42.130;24.746;2023-06-24T12:21:11;99264.56;;;32.10;42.88
8320;BME280;4197;42.130;24.746;2023-06-24T12:23:39;99277.06;;;32.14;42.47
8320;BME280;4197;42.130;24.746;2023-06-24T12:26:07;99260.22;;;32.09;41.53
8320;BME280;4197;42.130;24.746;2023-06-24T12:28:35;99251.78;;;32.03;41.43
8320;BME280;4197;42.130;24.746;2023-06-24T12:31:04;99246.47;;;32.05;40.82
8320;BME280;4197;42.130;24.746;2023-06-24T12:33:32;99241.34;;;32.04;40.24
8320;BME280;4197;42.130;24.746;2023-06-24T12:36:01;99235.22;;;32.05;41.33
8320;BME280;4197;42.130;24.746;2023-06-24T12:38:29;99232.97;;;32.20;42.24
8320;BME280;4197;42.130;24.746;2023-06-24T12:40:58;99225.81;;;32.36;41.16
8320;BME280;4197;42.130;24.746;2023-06-24T12:43:26;99217.69;;;32.61;40.77
8320;BME280;4197;42.130;24.746;2023-06-24T12:45:54;99212.06;;;32.72;40.61
8320;BME280;4197;42.130;24.746;2023-06-24T12:48:22;99212.78;;;32.95;39.41
8320;BME280;4197;42.130;24.746;2023-06-24T12:50:51;99208.75;;;32.46;39.71
8320;BME280;4197;42.130;24.746;2023-06-24T12:53:21;99204.69;;;32.58;39.97
8320;BME280;4197;42.130;24.746;2023-06-24T12:55:50;99205.16;;;32.34;40.75
8320;BME280;4197;42.130;24.746;2023-06-24T12:58:19;99200.09;;;32.60;39.93
8320;BME280;4197;42.130;24.746;2023-06-24T13:00:47;99196.75;;;32.51;40.46
8320;BME280;4197;42.130;24.746;2023-06-24T13:03:16;99187.34;;;32.54;40.06
8320;BME280;4197;42.130;24.746;2023-06-24T13:05:44;99180.94;;;32.59;40.64
8320;BME280;4197;42.130;24.746;2023-06-24T13:08:12;99180.94;;;32.48;39.84
8320;BME280;4197;42.130;24.746;2023-06-24T13:10:41;99179.91;;;32.51;39.60
8320;BME280;4197;42.130;24.746;2023-06-24T13:13:09;99180.16;;;32.41;39.88
8320;BME280;4197;42.130;24.746;2023-06-24T13:15:38;99181.44;;;32.35;40.66
8320;BME280;4197;42.130;24.746;2023-06-24T13:18:06;99189.34;;;32.36;40.67
8320;BME280;4197;42.130;24.746;2023-06-24T13:20:34;99189.63;;;32.55;41.57
8320;BME280;4197;42.130;24.746;2023-06-24T13:23:03;99183.22;;;32.66;40.42